Time;durP1;ratioP1;P1;durP2;ratioP2;P2;SDS_P1;SDS_P2;PMS_P1;PMS_P2;Temp;Humidity;BMP_temperature;BMP_pressure;BME280_temperature;BME280_humidity;BME280_pressure;Samples;Min_cycle;Max_cycle;Signal;HPM_P1;HPM_P2
2020/12/09 00:01:29;;;;;;;32.67;17.37;;;0.70;94.10;;;;;;4993720;28;20782;-83
2020/12/09 00:03:56;;;;;;;30.75;17.25;;;0.80;94.30;;;;;;4977436;28;20892;-83
2020/12/09 00:06:22;;;;;;;30.83;17.33;;;0.70;94.10;;;;;;4994060;28;20384;-83
2020/12/09 00:08:47;;;;;;;29.15;16.88;;;0.70;94.10;;;;;;4992977;28;20468;-83
2020/12/09 00:11:13;;;;;;;30.77;17.90;;;0.80;94.10;;;;;;4993586;28;20512;-83
2020/12/09 00:13:38;;;;;;;32.55;17.17;;;0.80;93.90;;;;;;4993393;28;20393;-84
2020/12/09 00:16:04;;;;;;;30.50;16.75;;;0.70;94.10;;;;;;4992952;28;20400;-83
2020/12/09 00:18:30;;;;;;;32.70;18.00;;;0.70;94.10;;;;;;4960310;28;20773;-82
2020/12/09 00:20:55;;;;;;;30.67;17.60;;;0.80;94.10;;;;;;4993529;28;20403;-83
2020/12/09 00:23:21;;;;;;;33.50;18.23;;;0.70;94.10;;;;;;4977272;28;20381;-83
2020/12/09 00:25:46;;;;;;;30.37;17.80;;;0.70;94.30;;;;;;5011089;28;20712;-83
2020/12/09 00:28:12;;;;;;;32.63;17.03;;;0.70;94.40;;;;;;5010622;28;20388;-83
2020/12/09 00:30:37;;;;;;;32.40;18.03;;;0.70;94.30;;;;;;4976842;28;20462;-83
2020/12/09 00:33:03;;;;;;;31.27;16.97;;;0.70;94.20;;;;;;4993306;28;20395;-83
2020/12/09 00:35:28;;;;;;;34.60;18.40;;;0.80;94.10;;;;;;4992297;28;20373;-83
2020/12/09 00:37:54;;;;;;;36.35;19.80;;;0.80;94.10;;;;;;4976746;28;20468;-84
2020/12/09 00:40:20;;;;;;;34.75;19.10;;;0.80;94.00;;;;;;4993128;28;20416;-83
2020/12/09 00:42:45;;;;;;;35.60;18.77;;;0.80;94.20;;;;;;4993287;28;20384;-82
2020/12/09 00:45:11;;;;;;;31.92;17.95;;;0.80;94.10;;;;;;4993004;28;20389;-83
2020/12/09 00:47:40;;;;;;;31.05;17.60;;;0.70;94.30;;;;;;5010622;28;20392;-82
2020/12/09 00:52:37;;;;;;;31.85;17.92;;;0.70;94.50;;;;;;5010666;28;20392;-83
2020/12/09 00:55:03;;;;;;;34.85;18.70;;;0.70;94.40;;;;;;4976778;28;20392;-83
2020/12/09 00:57:29;;;;;;;32.80;17.80;;;0.80;94.40;;;;;;4976048;28;20777;-83
2020/12/09 00:59:54;;;;;;;33.10;18.00;;;0.90;94.30;;;;;;4977070;28;20411;-83
2020/12/09 01:02:19;;;;;;;33.73;17.87;;;0.90;94.30;;;;;;5010270;28;20853;-83
2020/12/09 01:04:49;;;;;;;34.03;18.50;;;0.90;94.20;;;;;;4961513;28;20393;-83
2020/12/09 01:07:20;;;;;;;32.72;18.23;;;0.90;94.30;;;;;;4992329;28;20389;-83
2020/12/09 01:09:46;;;;;;;32.93;17.93;;;0.90;94.40;;;;;;4993000;28;20400;-83
2020/12/09 01:12:12;;;;;;;31.90;18.02;;;0.90;94.70;;;;;;4992820;28;20407;-83
2020/12/09 01:14:38;;;;;;;34.85;18.25;;;0.90;94.50;;;;;;4976792;28;20389;-83
2020/12/09 01:17:03;;;;;;;36.07;18.73;;;1.00;94.60;;;;;;5010353;28;20389;-83
2020/12/09 01:19:29;;;;;;;36.92;19.80;;;0.90;94.60;;;;;;4976968;28;20489;-82
2020/12/09 01:21:54;;;;;;;36.88;19.20;;;1.00;94.60;;;;;;4977217;28;20419;-83
2020/12/09 01:24:20;;;;;;;33.33;18.88;;;1.00;94.80;;;;;;4992654;28;20523;-83
2020/12/09 01:26:46;;;;;;;36.35;18.95;;;1.00;94.70;;;;;;4991842;28;20940;-83
2020/12/09 01:29:12;;;;;;;42.13;22.13;;;1.00;94.60;;;;;;4976561;28;20403;-83
2020/12/09 01:31:37;;;;;;;39.45;20.48;;;0.90;94.80;;;;;;5010503;28;20408;-82
2020/12/09 01:34:03;;;;;;;40.08;21.27;;;1.00;94.60;;;;;;4976507;28;20527;-83
2020/12/09 01:36:28;;;;;;;52.13;23.95;;;1.00;94.70;;;;;;4976738;28;20380;-83
2020/12/09 01:38:54;;;;;;;49.45;22.48;;;1.10;94.80;;;;;;5010118;28;20785;-83
2020/12/09 01:41:20;;;;;;;42.58;21.48;;;1.10;94.60;;;;;;4992637;28;20862;-82
2020/12/09 01:43:46;;;;;;;38.90;19.50;;;1.10;94.80;;;;;;4976401;28;20715;-83
2020/12/09 01:46:16;;;;;;;48.97;22.58;;;1.10;94.70;;;;;;4961392;28;20892;-83
2020/12/09 01:48:42;;;;;;;56.53;24.95;;;1.20;94.70;;;;;;4980131;28;20471;-83
2020/12/09 01:51:08;;;;;;;41.85;21.70;;;1.20;94.80;;;;;;4995933;28;20489;-83
2020/12/09 01:56:17;;;;;;;55.42;23.75;;;1.10;95.10;;;;;;4984738;28;20381;-83
2020/12/09 01:58:43;;;;;;;39.42;19.98;;;1.20;95.50;;;;;;5013313;28;20746;-83
2020/12/09 02:01:08;;;;;;;41.08;20.15;;;1.20;95.10;;;;;;4996013;28;20838;-83
2020/12/09 02:03:34;;;;;;;39.17;19.77;;;1.20;95.30;;;;;;4996227;28;20400;-82
2020/12/09 02:05:59;;;;;;;36.45;18.15;;;1.30;95.20;;;;;;4979668;28;20369;-83
2020/12/09 02:08:25;;;;;;;35.83;18.60;;;1.30;94.90;;;;;;4979386;28;20842;-82
2020/12/09 02:11:01;;;;;;;35.37;19.07;;;1.30;94.80;;;;;;4995558;28;20408;-83
2020/12/09 02:13:27;;;;;;;50.85;23.83;;;1.40;94.80;;;;;;4995363;28;20400;-82
2020/12/09 02:15:53;;;;;;;48.65;22.63;;;1.40;95.30;;;;;;4996042;28;20416;-83
2020/12/09 02:18:18;;;;;;;58.40;25.53;;;1.40;95.50;;;;;;4995222;28;20467;-83
2020/12/09 02:20:44;;;;;;;64.93;27.50;;;1.40;95.80;;;;;;4995837;28;20392;-83
2020/12/09 02:23:09;;;;;;;57.85;25.67;;;1.40;96.10;;;;;;4995586;28;20976;-83
2020/12/09 02:25:35;;;;;;;61.85;24.90;;;1.50;96.10;;;;;;4995654;28;20734;-83
2020/12/09 02:28:00;;;;;;;62.60;26.80;;;1.60;95.90;;;;;;4994920;28;20396;-83
2020/12/09 02:30:26;;;;;;;63.88;25.98;;;1.50;96.00;;;;;;4995663;28;20419;-83
2020/12/09 02:32:51;;;;;;;41.50;20.67;;;1.60;95.70;;;;;;5012817;28;20789;-83
2020/12/09 02:35:17;;;;;;;76.72;28.17;;;1.50;95.90;;;;;;4995325;28;20891;-83
2020/12/09 02:37:42;;;;;;;53.50;25.27;;;1.70;96.10;;;;;;5012209;28;20460;-83
2020/12/09 02:40:08;;;;;;;56.15;24.63;;;1.60;96.30;;;;;;4995230;28;20393;-83
2020/12/09 02:42:33;;;;;;;52.63;23.63;;;1.60;96.10;;;;;;4963027;28;20412;-83
2020/12/09 02:44:59;;;;;;;48.63;24.08;;;1.70;96.40;;;;;;5012680;28;20380;-82
2020/12/09 02:47:24;;;;;;;45.35;22.60;;;1.70;96.30;;;;;;5012529;28;20393;-82
2020/12/09 02:49:50;;;;;;;58.65;27.00;;;1.80;95.90;;;;;;4993432;28;20412;-82
2020/12/09 02:52:15;;;;;;;58.65;26.08;;;1.80;96.10;;;;;;4995294;28;20392;-83
2020/12/09 02:54:41;;;;;;;50.63;23.00;;;1.90;96.10;;;;;;5012688;28;20408;-82
2020/12/09 02:57:06;;;;;;;60.42;25.35;;;1.90;96.20;;;;;;4994312;28;20480;-82
2020/12/09 02:59:32;;;;;;;49.97;22.55;;;1.90;96.00;;;;;;4994414;28;20392;-82
2020/12/09 03:01:57;;;;;;;56.90;25.17;;;2.00;95.80;;;;;;4995013;28;20384;-82
2020/12/09 03:04:23;;;;;;;53.10;24.38;;;1.90;95.90;;;;;;4978615;28;20733;-82
2020/12/09 03:06:48;;;;;;;43.95;22.00;;;2.00;96.00;;;;;;4994502;28;20865;-82
2020/12/09 03:09:14;;;;;;;51.53;23.95;;;1.90;96.00;;;;;;5012183;28;20846;-82
2020/12/09 03:11:40;;;;;;;61.75;25.30;;;1.90;95.90;;;;;;4994375;28;20881;-82
2020/12/09 03:14:05;;;;;;;73.00;27.37;;;1.90;96.20;;;;;;4978207;28;20401;-82
2020/12/09 03:16:31;;;;;;;54.40;24.87;;;1.90;96.10;;;;;;4962022;28;20389;-82
2020/12/09 03:18:56;;;;;;;58.03;25.03;;;2.10;95.90;;;;;;4978337;28;20384;-82
2020/12/09 03:21:22;;;;;;;67.47;27.13;;;2.10;95.90;;;;;;5011827;28;20430;-82
2020/12/09 03:23:47;;;;;;;56.27;26.03;;;2.10;96.00;;;;;;4994364;28;20393;-82
2020/12/09 03:26:13;;;;;;;76.03;27.97;;;2.10;96.20;;;;;;4993422;28;20392;-82
2020/12/09 03:28:38;;;;;;;62.83;26.37;;;2.00;96.20;;;;;;5011588;28;20385;-82
2020/12/09 03:31:05;;;;;;;62.70;26.97;;;2.10;95.90;;;;;;4994131;28;20563;-82
2020/12/09 03:33:30;;;;;;;63.92;26.83;;;2.10;96.20;;;;;;4978328;28;20400;-81
2020/12/09 03:35:56;;;;;;;66.13;26.73;;;2.20;96.00;;;;;;5011661;28;20389;-82
2020/12/09 03:38:22;;;;;;;56.10;23.58;;;2.10;96.20;;;;;;4993231;28;20494;-82
2020/12/09 03:40:48;;;;;;;62.53;25.30;;;2.00;96.10;;;;;;5011452;28;20397;-82
2020/12/09 03:43:14;;;;;;;63.13;26.58;;;2.00;96.30;;;;;;4978023;28;20805;-82
2020/12/09 03:45:40;;;;;;;63.00;27.35;;;2.10;96.30;;;;;;4978058;28;20428;-81
2020/12/09 03:48:05;;;;;;;64.70;27.53;;;2.10;96.40;;;;;;4993405;28;20392;-82
2020/12/09 03:50:31;;;;;;;61.40;26.60;;;2.10;96.30;;;;;;4994154;28;20901;-82
2020/12/09 03:52:56;;;;;;;66.63;27.70;;;2.10;96.40;;;;;;4977391;28;20498;-82
2020/12/09 03:55:22;;;;;;;71.00;28.17;;;2.10;96.50;;;;;;5011551;28;20389;-82
2020/12/09 03:57:47;;;;;;;56.27;26.40;;;2.20;96.30;;;;;;4993204;28;20424;-82
2020/12/09 04:00:13;;;;;;;58.57;26.03;;;2.10;96.30;;;;;;4994000;28;20523;-82
2020/12/09 04:02:38;;;;;;;68.37;26.40;;;2.10;96.20;;;;;;4977445;28;20793;-82
2020/12/09 04:05:04;;;;;;;79.23;30.90;;;2.10;96.20;;;;;;4993864;28;20381;-82
2020/12/09 04:07:30;;;;;;;62.30;26.27;;;2.10;96.40;;;;;;4992989;28;20385;-82
2020/12/09 04:09:55;;;;;;;61.77;26.23;;;2.10;96.40;;;;;;5011059;28;20389;-82
2020/12/09 04:12:23;;;;;;;68.53;26.85;;;2.10;96.40;;;;;;5010949;28;20749;-82
2020/12/09 04:14:51;;;;;;;65.20;28.27;;;2.10;96.60;;;;;;4993389;28;20825;-81
2020/12/09 04:17:16;;;;;;;60.67;26.42;;;2.20;96.60;;;;;;4976797;28;20841;-82
2020/12/09 04:19:42;;;;;;;68.97;27.63;;;2.10;96.50;;;;;;4993479;28;20527;-83
2020/12/09 04:22:07;;;;;;;72.57;28.50;;;2.10;96.50;;;;;;4977383;28;20882;-83
2020/12/09 04:24:33;;;;;;;72.00;28.87;;;2.30;96.40;;;;;;4993371;28;20715;-82
2020/12/09 04:26:59;;;;;;;70.87;27.93;;;2.20;96.40;;;;;;5010406;28;20381;-81
2020/12/09 04:29:24;;;;;;;72.63;30.20;;;2.30;96.40;;;;;;5010677;28;20784;-82
2020/12/09 04:31:50;;;;;;;76.33;29.10;;;2.20;96.30;;;;;;4993324;28;20415;-82
2020/12/09 04:34:19;;;;;;;64.53;27.17;;;2.10;96.40;;;;;;4993284;28;20387;-81
2020/12/09 04:36:44;;;;;;;74.30;29.48;;;2.10;96.50;;;;;;4977684;28;20409;-82
2020/12/09 04:39:10;;;;;;;70.80;29.60;;;2.10;96.40;;;;;;4993250;28;20833;-81
2020/12/09 04:41:35;;;;;;;64.10;27.47;;;2.10;96.60;;;;;;4992156;28;20687;-82
2020/12/09 04:44:01;;;;;;;68.80;29.93;;;2.10;96.50;;;;;;5010528;28;20468;-81
2020/12/09 04:46:26;;;;;;;67.73;27.00;;;2.20;96.60;;;;;;4993095;28;20783;-81
2020/12/09 04:48:59;;;;;;;76.73;28.67;;;2.20;96.30;;;;;;4977008;28;20377;-82
2020/12/09 04:51:39;;;;;;;63.17;27.73;;;2.10;96.30;;;;;;4993514;28;20508;-81
2020/12/09 04:54:05;;;;;;;69.53;28.92;;;2.10;96.30;;;;;;4993012;28;20470;-81
2020/12/09 04:56:37;;;;;;;63.67;27.67;;;2.10;96.50;;;;;;4976896;28;20675;-82
2020/12/09 04:59:15;;;;;;;75.93;28.35;;;2.10;96.20;;;;;;4992265;28;20489;-81
2020/12/09 05:02:08;;;;;;;66.85;26.33;;;2.10;96.50;;;;;;4976681;28;25133;-81
2020/12/09 05:04:34;;;;;;;62.80;26.90;;;2.10;96.30;;;;;;4974023;28;25116;-82
2020/12/09 05:07:09;;;;;;;65.88;27.67;;;2.10;96.50;;;;;;4992728;28;20435;-81
2020/12/09 05:09:42;;;;;;;68.07;27.73;;;2.10;96.50;;;;;;4977365;28;20388;-81
2020/12/09 05:12:07;;;;;;;61.88;25.98;;;2.10;96.50;;;;;;4993075;28;20470;-81
2020/12/09 05:14:36;;;;;;;64.60;27.45;;;2.10;96.30;;;;;;4992913;28;20389;-81
2020/12/09 05:17:02;;;;;;;72.53;28.80;;;2.10;96.40;;;;;;4977037;28;20399;-82
2020/12/09 05:19:27;;;;;;;61.78;27.10;;;2.10;96.50;;;;;;4976661;28;20385;-82
2020/12/09 05:21:53;;;;;;;80.75;30.20;;;2.10;96.50;;;;;;4994548;28;20403;-82
2020/12/09 05:24:19;;;;;;;67.10;27.77;;;2.10;96.60;;;;;;4964208;28;20411;-81
2020/12/09 05:26:45;;;;;;;61.27;26.40;;;2.00;96.50;;;;;;4996357;28;20385;-81
2020/12/09 05:29:17;;;;;;;80.80;29.20;;;2.10;96.70;;;;;;4980412;28;20389;-82
2020/12/09 05:31:44;;;;;;;68.63;29.20;;;2.20;96.50;;;;;;4996552;28;20470;-81
2020/12/09 05:34:31;;;;;;;80.87;30.67;;;2.20;96.80;;;;;;4996385;28;20448;-81
2020/12/09 05:37:07;;;;;;;80.38;29.67;;;2.20;96.80;;;;;;4979520;28;25172;-82
2020/12/09 05:39:33;;;;;;;82.32;30.95;;;2.20;96.60;;;;;;4980571;28;20723;-82
2020/12/09 05:42:13;;;;;;;85.20;31.77;;;2.20;96.60;;;;;;4996101;28;20392;-82
2020/12/09 05:44:43;;;;;;;82.25;32.10;;;2.30;96.90;;;;;;5014035;28;20381;-81
2020/12/09 05:47:09;;;;;;;67.88;29.55;;;2.30;96.90;;;;;;4980279;28;20381;-82
2020/12/09 05:49:39;;;;;;;73.60;30.60;;;2.30;96.80;;;;;;4996141;28;20399;-81
2020/12/09 05:52:20;;;;;;;76.57;30.85;;;2.30;96.90;;;;;;4964915;28;20409;-82
2020/12/09 05:54:51;;;;;;;83.30;31.48;;;2.40;96.70;;;;;;4964888;28;20519;-83
2020/12/09 05:57:18;;;;;;;82.93;31.08;;;2.30;96.80;;;;;;5013325;28;20704;-82
2020/12/09 05:59:45;;;;;;;81.90;31.25;;;2.30;97.00;;;;;;4979723;28;20752;-81
2020/12/09 06:02:21;;;;;;;71.60;30.47;;;2.40;97.00;;;;;;4995960;28;20397;-82
2020/12/09 06:04:57;;;;;;;69.28;30.58;;;2.40;97.00;;;;;;4995818;28;20425;-81
2020/12/09 06:07:24;;;;;;;89.40;33.63;;;2.40;97.00;;;;;;4963852;28;20842;-82
2020/12/09 06:10:16;;;;;;;77.13;32.05;;;2.40;96.90;;;;;;4995900;28;20379;-81
2020/12/09 06:12:58;;;;;;;74.73;30.37;;;2.40;97.00;;;;;;4996307;28;20455;-82
2020/12/09 06:15:31;;;;;;;97.45;33.60;;;2.40;96.90;;;;;;4979448;28;20392;-82
2020/12/09 06:18:14;;;;;;;88.65;33.65;;;2.40;96.90;;;;;;4978998;28;20417;-82
2020/12/09 06:20:40;;;;;;;77.82;31.25;;;2.40;96.90;;;;;;4995831;28;20850;-81
2020/12/09 06:23:12;;;;;;;95.07;34.22;;;2.40;96.90;;;;;;5011903;28;20388;-81
2020/12/09 06:25:39;;;;;;;78.75;32.47;;;2.50;96.70;;;;;;4979585;28;20417;-82
2020/12/09 06:28:11;;;;;;;82.95;32.97;;;2.40;96.80;;;;;;4978937;28;20393;-81
2020/12/09 06:30:37;;;;;;;80.82;32.78;;;2.50;96.60;;;;;;4979311;28;20408;-81
2020/12/09 06:33:02;;;;;;;72.77;30.37;;;2.50;96.60;;;;;;4990607;28;20712;-81
2020/12/09 06:35:28;;;;;;;76.33;31.00;;;2.50;96.50;;;;;;4997607;28;20394;-81
2020/12/09 06:38:09;;;;;;;82.27;32.37;;;2.50;96.60;;;;;;4998005;28;20387;-81
2020/12/09 06:40:38;;;;;;;84.32;32.50;;;2.40;96.80;;;;;;5032236;28;20725;-82
2020/12/09 06:43:08;;;;;;;76.35;32.22;;;2.50;96.90;;;;;;4998153;28;20390;-82
2020/12/09 06:45:43;;;;;;;80.03;33.20;;;2.50;96.90;;;;;;4998779;28;20415;-82
2020/12/09 06:48:12;;;;;;;77.68;32.45;;;2.50;96.90;;;;;;5031646;28;20387;-82
2020/12/09 06:50:38;;;;;;;93.78;35.08;;;2.50;96.80;;;;;;4998155;28;20417;-82
2020/12/09 06:53:22;;;;;;;80.40;32.07;;;2.50;96.70;;;;;;4981702;28;20407;-83
2020/12/09 06:55:51;;;;;;;86.72;33.50;;;2.50;96.70;;;;;;5015066;28;20476;-82
2020/12/09 06:58:26;;;;;;;78.28;31.73;;;2.60;96.60;;;;;;4997635;28;20744;-82
2020/12/09 07:01:01;;;;;;;82.68;32.42;;;2.50;96.60;;;;;;4998003;28;20434;-82
2020/12/09 07:03:28;;;;;;;79.78;32.17;;;2.50;96.80;;;;;;5013451;28;20422;-83
2020/12/09 07:05:54;;;;;;;77.78;32.17;;;2.50;96.80;;;;;;4998118;28;20391;-81
2020/12/09 07:08:19;;;;;;;76.82;32.00;;;2.50;96.70;;;;;;5031658;28;20475;-83
2020/12/09 07:10:45;;;;;;;74.37;33.70;;;2.60;96.60;;;;;;5013769;28;20407;-84
2020/12/09 07:13:15;;;;;;;83.37;34.00;;;2.60;96.50;;;;;;5013720;28;20868;-84
2020/12/09 07:15:45;;;;;;;91.10;35.58;;;2.60;96.50;;;;;;5014064;28;20394;-82
2020/12/09 07:18:10;;;;;;;91.18;35.20;;;2.60;96.50;;;;;;5031597;28;20906;-84
2020/12/09 07:20:36;;;;;;;79.93;34.33;;;2.60;96.50;;;;;;4981246;28;20395;-83
2020/12/09 07:23:02;;;;;;;93.83;35.67;;;2.60;96.50;;;;;;5014294;28;20868;-84
2020/12/09 07:25:28;;;;;;;90.10;35.33;;;2.60;96.40;;;;;;4997341;28;20390;-84
2020/12/09 07:27:54;;;;;;;83.03;35.33;;;2.60;96.50;;;;;;4997301;28;20396;-84
2020/12/09 07:30:21;;;;;;;93.45;35.92;;;2.60;96.40;;;;;;4997252;28;20417;-82
2020/12/09 07:32:49;;;;;;;86.22;34.83;;;2.60;96.50;;;;;;5030250;28;20772;-83
2020/12/09 07:35:15;;;;;;;93.55;35.80;;;2.70;96.50;;;;;;5014212;28;20840;-83
2020/12/09 07:37:42;;;;;;;91.47;36.33;;;2.60;96.60;;;;;;4996997;28;20433;-83
2020/12/09 07:40:11;;;;;;;98.15;36.65;;;2.50;96.70;;;;;;4981544;28;20391;-83
2020/12/09 07:42:37;;;;;;;102.95;38.58;;;2.60;96.70;;;;;;4997639;28;20406;-83
2020/12/09 07:45:03;;;;;;;94.80;36.47;;;2.60;96.60;;;;;;5013425;28;20387;-84
2020/12/09 07:47:29;;;;;;;106.90;38.65;;;2.60;96.60;;;;;;5012975;28;20387;-84
2020/12/09 07:49:57;;;;;;;103.40;38.78;;;2.60;96.60;;;;;;5013831;28;20437;-84
2020/12/09 07:52:24;;;;;;;111.13;40.13;;;2.60;96.70;;;;;;4980827;28;20971;-84
2020/12/09 07:55:00;;;;;;;112.03;40.78;;;2.60;96.60;;;;;;5014063;28;20760;-84
2020/12/09 07:57:31;;;;;;;110.43;40.55;;;2.70;96.50;;;;;;5013262;28;20970;-84
2020/12/09 07:59:56;;;;;;;99.55;39.25;;;2.60;96.50;;;;;;4996968;28;20391;-84
2020/12/09 08:02:23;;;;;;;106.07;40.17;;;2.60;96.60;;;;;;4997122;28;20498;-84
2020/12/09 08:05:14;;;;;;;95.82;37.45;;;2.70;96.50;;;;;;4997162;28;20391;-83
2020/12/09 08:08:13;;;;;;;93.68;37.78;;;2.70;96.40;;;;;;4998292;28;20836;-83
2020/12/09 08:10:43;;;;;;;103.85;39.60;;;2.60;96.10;;;;;;5000057;28;20411;-83
2020/12/09 08:13:09;;;;;;;108.72;42.53;;;2.70;95.70;;;;;;4997641;28;20396;-83
2020/12/09 08:15:37;;;;;;;112.25;42.08;;;2.60;96.10;;;;;;5013354;28;20466;-83
2020/12/09 08:18:03;;;;;;;110.47;43.50;;;2.60;96.30;;;;;;4996494;28;20383;-83
2020/12/09 08:20:28;;;;;;;117.63;43.80;;;2.60;96.00;;;;;;5020950;28;20387;-84
2020/12/09 08:22:58;;;;;;;113.53;42.85;;;2.50;96.10;;;;;;5014720;28;20408;-83
2020/12/09 08:25:25;;;;;;;110.38;43.03;;;2.50;95.90;;;;;;4993925;28;20392;-83
2020/12/09 08:27:51;;;;;;;115.17;42.97;;;2.50;96.00;;;;;;4960967;28;20395;-80
2020/12/09 08:30:21;;;;;;;126.45;44.83;;;2.60;95.90;;;;;;4984409;28;20407;-83
2020/12/09 08:33:03;;;;;;;118.32;44.47;;;2.70;95.70;;;;;;5004495;28;20480;-84
2020/12/09 08:35:48;;;;;;;109.22;42.65;;;2.70;95.40;;;;;;5017917;28;20387;-83
2020/12/09 08:38:30;;;;;;;112.43;43.10;;;2.60;95.50;;;;;;5018738;28;20384;-83
2020/12/09 08:40:56;;;;;;;118.47;43.15;;;2.60;95.50;;;;;;4995882;28;20436;-82
2020/12/09 08:43:24;;;;;;;114.15;44.40;;;2.60;95.50;;;;;;4977482;28;20483;-83
2020/12/09 08:45:49;;;;;;;111.82;44.40;;;2.60;95.40;;;;;;4993229;28;20377;-83
2020/12/09 08:48:16;;;;;;;127.93;48.67;;;2.70;95.30;;;;;;4993155;28;20387;-83
2020/12/09 08:50:44;;;;;;;104.20;42.42;;;2.70;95.20;;;;;;4992435;28;20412;-83
2020/12/09 08:53:09;;;;;;;108.67;42.33;;;2.70;94.70;;;;;;5026127;28;20407;-83
2020/12/09 08:55:35;;;;;;;105.00;40.90;;;2.60;94.90;;;;;;5028332;28;20384;-82
2020/12/09 08:58:00;;;;;;;102.57;41.60;;;2.60;95.10;;;;;;5028632;28;20372;-83
2020/12/09 09:00:26;;;;;;;102.30;41.13;;;2.60;94.70;;;;;;5029340;28;20406;-83
2020/12/09 09:02:51;;;;;;;108.03;43.30;;;2.60;95.00;;;;;;5028959;28;21027;-83
2020/12/09 09:05:17;;;;;;;100.10;42.30;;;2.60;95.30;;;;;;5029274;28;20383;-83
2020/12/09 09:07:42;;;;;;;103.03;42.43;;;2.60;94.90;;;;;;5028535;28;20379;-83
2020/12/09 09:10:08;;;;;;;93.47;41.17;;;2.60;94.90;;;;;;5012611;28;20410;-83
2020/12/09 09:12:33;;;;;;;98.63;41.60;;;2.50;94.60;;;;;;5028671;28;20387;-83
2020/12/09 09:14:59;;;;;;;95.50;42.00;;;2.50;94.60;;;;;;5029137;28;20421;-83
2020/12/09 09:17:24;;;;;;;100.13;42.87;;;2.50;94.50;;;;;;5028481;28;20411;-83
2020/12/09 09:19:50;;;;;;;96.33;41.80;;;2.60;94.70;;;;;;5030370;28;20768;-82
2020/12/09 09:22:15;;;;;;;94.73;41.30;;;2.50;94.70;;;;;;5029872;28;20895;-83
2020/12/09 09:24:41;;;;;;;104.57;45.10;;;2.70;94.00;;;;;;5017733;28;20387;-83
2020/12/09 09:27:11;;;;;;;113.20;45.57;;;2.60;94.20;;;;;;5011866;28;20391;-83
2020/12/09 09:29:37;;;;;;;110.90;44.78;;;2.50;94.50;;;;;;4995788;28;20460;-83
2020/12/09 09:32:04;;;;;;;113.20;45.95;;;2.50;94.40;;;;;;4995866;28;20422;-83
2020/12/09 09:34:30;;;;;;;118.00;47.47;;;2.60;94.60;;;;;;5012080;28;20395;-83
2020/12/09 09:36:55;;;;;;;111.43;46.95;;;2.60;94.70;;;;;;5012000;28;20384;-83
2020/12/09 09:39:21;;;;;;;120.57;48.87;;;2.60;94.40;;;;;;5012186;28;20402;-82
2020/12/09 09:41:46;;;;;;;118.87;49.10;;;2.50;94.20;;;;;;5012425;28;20422;-82
2020/12/09 09:44:12;;;;;;;118.83;47.43;;;2.60;94.20;;;;;;5029474;28;20468;-82
2020/12/09 09:46:38;;;;;;;112.87;47.67;;;2.60;94.30;;;;;;5011696;28;20422;-83
2020/12/09 09:49:04;;;;;;;133.40;48.72;;;2.60;93.60;;;;;;5012067;28;20380;-83
2020/12/09 09:51:29;;;;;;;117.53;48.10;;;2.60;94.10;;;;;;4995886;28;20737;-82
2020/12/09 09:53:55;;;;;;;105.23;45.97;;;2.50;94.20;;;;;;5029993;28;20847;-83
2020/12/09 09:56:20;;;;;;;125.57;48.17;;;2.40;93.30;;;;;;5029765;28;20867;-83
2020/12/09 09:58:46;;;;;;;112.27;45.67;;;2.60;93.50;;;;;;5011404;28;20399;-83
2020/12/09 10:01:14;;;;;;;105.97;43.43;;;2.40;93.50;;;;;;5012035;28;20449;-83
2020/12/09 10:03:40;;;;;;;106.78;44.03;;;2.50;92.30;;;;;;4996083;28;20815;-82
2020/12/09 10:06:05;;;;;;;109.95;45.13;;;2.60;93.00;;;;;;5011915;28;20418;-83
2020/12/09 10:08:31;;;;;;;100.25;42.97;;;2.60;92.80;;;;;;4998421;28;20391;-82
2020/12/09 10:11:01;;;;;;;106.82;44.17;;;2.50;92.10;;;;;;5014884;28;20422;-82
2020/12/09 10:13:26;;;;;;;97.47;40.50;;;2.40;92.70;;;;;;5021520;28;20477;-82
2020/12/09 10:15:52;;;;;;;107.00;44.30;;;2.40;92.70;;;;;;5032012;28;20915;-82
2020/12/09 10:18:17;;;;;;;97.73;42.50;;;2.40;93.40;;;;;;5025030;28;20475;-83
2020/12/09 10:20:43;;;;;;;99.93;41.10;;;2.40;92.70;;;;;;5025673;28;20487;-82
2020/12/09 10:23:08;;;;;;;93.63;39.53;;;2.30;92.60;;;;;;4999519;28;20403;-82
2020/12/09 10:25:34;;;;;;;88.10;37.07;;;2.40;92.40;;;;;;5015144;28;20486;-82
2020/12/09 10:27:59;;;;;;;83.07;36.50;;;2.30;92.30;;;;;;5014716;28;20379;-82
2020/12/09 10:30:25;;;;;;;85.77;38.73;;;2.30;92.70;;;;;;5015357;28;20426;-83
2020/12/09 10:32:50;;;;;;;91.73;39.77;;;2.40;92.50;;;;;;5014559;28;20395;-82
2020/12/09 10:35:16;;;;;;;92.03;39.97;;;2.40;92.70;;;;;;5014923;28;20402;-83
2020/12/09 10:37:41;;;;;;;89.37;38.53;;;2.50;92.70;;;;;;5014394;28;20464;-82
2020/12/09 10:40:07;;;;;;;91.93;38.97;;;2.40;92.20;;;;;;5015348;28;20466;-83
2020/12/09 10:42:33;;;;;;;92.47;40.07;;;2.50;92.60;;;;;;5014618;28;20391;-83
2020/12/09 10:44:59;;;;;;;87.30;40.22;;;2.60;92.40;;;;;;5047988;28;20872;-82
2020/12/09 10:47:24;;;;;;;92.13;41.23;;;2.70;91.90;;;;;;5030510;28;20398;-83
2020/12/09 10:49:50;;;;;;;84.40;38.37;;;2.70;92.90;;;;;;5032648;28;20376;-82
2020/12/09 10:52:15;;;;;;;85.83;38.20;;;2.60;92.40;;;;;;5030978;28;20407;-82
2020/12/09 10:54:41;;;;;;;88.97;38.37;;;2.60;92.00;;;;;;5014625;28;20859;-83
2020/12/09 10:57:07;;;;;;;92.25;40.35;;;2.80;92.10;;;;;;5031872;28;20413;-82
2020/12/09 10:59:33;;;;;;;88.07;38.33;;;3.00;91.00;;;;;;5031708;28;20867;-82
2020/12/09 11:01:58;;;;;;;85.60;37.47;;;2.80;91.20;;;;;;5029665;28;20489;-82
2020/12/09 11:04:24;;;;;;;91.20;38.57;;;2.80;90.70;;;;;;5031918;28;20388;-82
2020/12/09 11:06:49;;;;;;;90.67;39.27;;;2.80;92.10;;;;;;5030630;28;20391;-82
2020/12/09 11:09:15;;;;;;;94.97;39.63;;;2.90;91.90;;;;;;5014155;28;20482;-82
2020/12/09 11:11:46;;;;;;;92.17;40.23;;;3.00;91.80;;;;;;5032077;28;20411;-83
2020/12/09 11:14:13;;;;;;;88.57;39.42;;;3.00;91.60;;;;;;5031920;28;20860;-82
2020/12/09 11:16:39;;;;;;;91.00;39.60;;;3.00;91.40;;;;;;5013939;28;20427;-83
2020/12/09 11:19:04;;;;;;;86.63;38.83;;;3.10;90.90;;;;;;5029394;28;20434;-82
2020/12/09 11:21:30;;;;;;;82.70;38.90;;;3.20;89.90;;;;;;5016044;28;20816;-82
2020/12/09 11:23:55;;;;;;;82.68;37.75;;;2.80;90.40;;;;;;5031755;28;20836;-82
2020/12/09 11:26:21;;;;;;;88.80;38.72;;;2.90;90.60;;;;;;5014211;28;20466;-82
2020/12/09 11:28:47;;;;;;;87.13;39.55;;;2.90;91.20;;;;;;4997046;28;20391;-81
2020/12/09 11:31:12;;;;;;;85.87;38.13;;;3.00;91.60;;;;;;4997128;28;20407;-82
2020/12/09 11:33:38;;;;;;;89.10;40.20;;;3.00;90.20;;;;;;5013923;28;20393;-81
2020/12/09 11:36:04;;;;;;;90.80;37.87;;;3.10;91.70;;;;;;5014076;28;20391;-82
2020/12/09 11:38:31;;;;;;;89.93;39.95;;;3.00;90.70;;;;;;5013109;28;20820;-81
2020/12/09 11:40:57;;;;;;;85.30;39.57;;;3.10;91.30;;;;;;5013959;28;20419;-81
2020/12/09 11:43:25;;;;;;;86.20;39.23;;;3.00;90.10;;;;;;4997423;28;20406;-81
2020/12/09 11:45:50;;;;;;;83.70;39.15;;;3.00;90.80;;;;;;5013862;28;20394;-81
2020/12/09 11:48:16;;;;;;;82.13;38.67;;;2.90;90.50;;;;;;5031081;28;20379;-81
2020/12/09 11:50:42;;;;;;;92.15;39.55;;;3.00;91.00;;;;;;4997055;28;20411;-82
2020/12/09 11:53:07;;;;;;;82.50;38.13;;;3.10;90.70;;;;;;5031271;28;20801;-81
2020/12/09 11:55:33;;;;;;;107.55;47.67;;;3.30;90.50;;;;;;4996615;28;20402;-81
2020/12/09 11:57:59;;;;;;;89.78;39.72;;;3.50;90.70;;;;;;5017862;28;20788;-81
2020/12/09 12:00:24;;;;;;;78.55;35.67;;;3.50;90.10;;;;;;5013061;28;20407;-82
2020/12/09 12:02:50;;;;;;;76.75;35.70;;;3.40;89.10;;;;;;5012741;28;20406;-81
2020/12/09 12:05:20;;;;;;;79.72;35.40;;;3.10;88.70;;;;;;5013772;28;20398;-82
2020/12/09 12:07:46;;;;;;;80.97;35.92;;;3.20;89.50;;;;;;5030669;28;20441;-81
2020/12/09 12:10:11;;;;;;;80.60;36.45;;;3.10;90.20;;;;;;5013197;28;20771;-81
2020/12/09 12:12:37;;;;;;;86.70;37.17;;;3.00;90.60;;;;;;5012878;28;20879;-82
2020/12/09 12:15:02;;;;;;;79.57;36.57;;;3.10;89.30;;;;;;5012998;28;20876;-81
2020/12/09 12:17:28;;;;;;;87.23;38.57;;;3.10;89.90;;;;;;5030335;28;20866;-81
2020/12/09 12:19:53;;;;;;;85.47;37.83;;;3.20;89.70;;;;;;5030810;28;20389;-81
2020/12/09 12:22:19;;;;;;;86.45;36.60;;;3.00;90.50;;;;;;5012931;28;20387;-81
2020/12/09 12:24:45;;;;;;;79.20;35.72;;;3.10;89.60;;;;;;5013501;28;20391;-81
2020/12/09 12:27:10;;;;;;;86.07;38.23;;;3.20;89.60;;;;;;4996546;28;20812;-81
2020/12/09 12:29:36;;;;;;;81.43;36.73;;;3.20;89.70;;;;;;5013032;28;20418;-82
2020/12/09 12:32:01;;;;;;;82.17;36.77;;;3.20;89.30;;;;;;5013336;28;20522;-81
2020/12/09 12:34:27;;;;;;;79.77;36.17;;;3.20;89.60;;;;;;5030860;28;20395;-81
2020/12/09 12:36:57;;;;;;;84.33;37.83;;;3.20;90.20;;;;;;5013031;28;20764;-82
2020/12/09 12:39:22;;;;;;;80.13;38.05;;;3.30;90.00;;;;;;5012808;28;20387;-82
2020/12/09 12:41:48;;;;;;;83.32;35.85;;;3.50;90.00;;;;;;5013061;28;20391;-82